sensor_id;sensor_type;location;lat;lon;timestamp;P1;durP1;ratioP1;P2;durP2;ratioP2
77038;SDS011;65970;50.476;4.840;2023-02-28T00:01:47;5.55;;;4.30;;
77038;SDS011;65970;50.476;4.840;2023-02-28T00:06:48;4.50;;;4.10;;
77038;SDS011;65970;50.476;4.840;2023-02-28T00:11:48;5.55;;;4.10;;
77038;SDS011;65970;50.476;4.840;2023-02-28T00:16:49;6.38;;;3.75;;
77038;SDS011;65970;50.476;4.840;2023-02-28T00:21:50;4.30;;;3.90;;
77038;SDS011;65970;50.476;4.840;2023-02-28T00:26:50;8.13;;;3.95;;
77038;SDS011;65970;50.476;4.840;2023-02-28T00:31:51;4.80;;;3.78;;
77038;SDS011;65970;50.476;4.840;2023-02-28T00:36:51;5.93;;;4.05;;
77038;SDS011;65970;50.476;4.840;2023-02-28T00:41:52;6.47;;;4.40;;
77038;SDS011;65970;50.476;4.840;2023-02-28T00:46:52;5.63;;;3.90;;
77038;SDS011;65970;50.476;4.840;2023-02-28T00:51:55;5.97;;;3.67;;
77038;SDS011;65970;50.476;4.840;2023-02-28T00:56:56;5.95;;;3.45;;
77038;SDS011;65970;50.476;4.840;2023-02-28T01:01:56;7.20;;;3.15;;
77038;SDS011;65970;50.476;4.840;2023-02-28T01:06:57;5.50;;;3.50;;
77038;SDS011;65970;50.476;4.840;2023-02-28T01:11:57;4.18;;;3.42;;
77038;SDS011;65970;50.476;4.840;2023-02-28T01:16:58;3.88;;;3.42;;
77038;SDS011;65970;50.476;4.840;2023-02-28T01:22:05;3.85;;;3.45;;
77038;SDS011;65970;50.476;4.840;2023-02-28T01:27:06;3.53;;;2.88;;
77038;SDS011;65970;50.476;4.840;2023-02-28T01:32:06;3.28;;;2.65;;
77038;SDS011;65970;50.476;4.840;2023-02-28T01:37:07;6.65;;;3.17;;
77038;SDS011;65970;50.476;4.840;2023-02-28T01:42:08;4.22;;;3.17;;
77038;SDS011;65970;50.476;4.840;2023-02-28T01:47:09;4.78;;;2.78;;
77038;SDS011;65970;50.476;4.840;2023-02-28T01:52:10;2.97;;;2.58;;
77038;SDS011;65970;50.476;4.840;2023-02-28T01:57:13;3.95;;;2.35;;
77038;SDS011;65970;50.476;4.840;2023-02-28T02:02:19;5.38;;;2.95;;
77038;SDS011;65970;50.476;4.840;2023-02-28T02:12:43;2.50;;;2.17;;
77038;SDS011;65970;50.476;4.840;2023-02-28T02:18:09;5.47;;;2.45;;
77038;SDS011;65970;50.476;4.840;2023-02-28T02:28:54;2.50;;;2.30;;
77038;SDS011;65970;50.476;4.840;2023-02-28T02:44:24;3.65;;;2.90;;
77038;SDS011;65970;50.476;4.840;2023-02-28T02:49:51;2.72;;;2.40;;
77038;SDS011;65970;50.476;4.840;2023-02-28T02:54:54;3.15;;;2.75;;
77038;SDS011;65970;50.476;4.840;2023-02-28T02:59:58;2.45;;;2.25;;
77038;SDS011;65970;50.476;4.840;2023-02-28T03:05:01;4.50;;;2.13;;
77038;SDS011;65970;50.476;4.840;2023-02-28T03:10:27;3.20;;;2.20;;
77038;SDS011;65970;50.476;4.840;2023-02-28T03:15:47;5.07;;;2.55;;
77038;SDS011;65970;50.476;4.840;2023-02-28T03:21:23;2.88;;;2.33;;
77038;SDS011;65970;50.476;4.840;2023-02-28T03:26:50;7.00;;;2.35;;
77038;SDS011;65970;50.476;4.840;2023-02-28T03:32:04;4.10;;;2.47;;
77038;SDS011;65970;50.476;4.840;2023-02-28T03:37:26;4.88;;;2.53;;
77038;SDS011;65970;50.476;4.840;2023-02-28T03:42:31;4.32;;;2.78;;
77038;SDS011;65970;50.476;4.840;2023-02-28T03:52:42;2.25;;;2.13;;
77038;SDS011;65970;50.476;4.840;2023-02-28T03:57:56;4.55;;;3.25;;
77038;SDS011;65970;50.476;4.840;2023-02-28T04:03:07;4.30;;;2.38;;
77038;SDS011;65970;50.476;4.840;2023-02-28T04:08:08;2.85;;;1.90;;
77038;SDS011;65970;50.476;4.840;2023-02-28T04:13:09;3.35;;;3.05;;
77038;SDS011;65970;50.476;4.840;2023-02-28T04:18:09;2.67;;;2.40;;
77038;SDS011;65970;50.476;4.840;2023-02-28T04:23:10;3.00;;;2.50;;
77038;SDS011;65970;50.476;4.840;2023-02-28T04:28:10;3.72;;;2.72;;
77038;SDS011;65970;50.476;4.840;2023-02-28T04:33:11;3.72;;;2.72;;
77038;SDS011;65970;50.476;4.840;2023-02-28T04:38:11;3.42;;;2.28;;
77038;SDS011;65970;50.476;4.840;2023-02-28T04:43:12;3.10;;;2.42;;
77038;SDS011;65970;50.476;4.840;2023-02-28T04:48:12;3.63;;;2.63;;
77038;SDS011;65970;50.476;4.840;2023-02-28T04:53:13;3.10;;;2.67;;
77038;SDS011;65970;50.476;4.840;2023-02-28T04:58:13;2.85;;;2.40;;
77038;SDS011;65970;50.476;4.840;2023-02-28T05:03:14;4.65;;;2.53;;
77038;SDS011;65970;50.476;4.840;2023-02-28T05:08:14;2.72;;;2.53;;
77038;SDS011;65970;50.476;4.840;2023-02-28T05:13:18;4.47;;;2.88;;
77038;SDS011;65970;50.476;4.840;2023-02-28T05:18:18;3.20;;;2.83;;
77038;SDS011;65970;50.476;4.840;2023-02-28T05:23:19;3.97;;;2.50;;
77038;SDS011;65970;50.476;4.840;2023-02-28T05:33:23;3.70;;;2.45;;
77038;SDS011;65970;50.476;4.840;2023-02-28T05:38:23;2.80;;;2.45;;
77038;SDS011;65970;50.476;4.840;2023-02-28T05:43:28;3.40;;;2.80;;
77038;SDS011;65970;50.476;4.840;2023-02-28T05:48:29;3.95;;;2.70;;
77038;SDS011;65970;50.476;4.840;2023-02-28T05:53:29;3.25;;;2.58;;
77038;SDS011;65970;50.476;4.840;2023-02-28T05:58:30;4.22;;;2.53;;
77038;SDS011;65970;50.476;4.840;2023-02-28T06:03:31;3.30;;;2.85;;
77038;SDS011;65970;50.476;4.840;2023-02-28T06:08:32;3.85;;;3.05;;
77038;SDS011;65970;50.476;4.840;2023-02-28T06:13:32;3.22;;;2.85;;
77038;SDS011;65970;50.476;4.840;2023-02-28T06:18:34;3.47;;;2.85;;
77038;SDS011;65970;50.476;4.840;2023-02-28T06:23:35;3.97;;;2.63;;
77038;SDS011;65970;50.476;4.840;2023-02-28T06:28:35;9.27;;;2.80;;
77038;SDS011;65970;50.476;4.840;2023-02-28T06:33:36;6.03;;;2.80;;
77038;SDS011;65970;50.476;4.840;2023-02-28T06:38:38;5.85;;;2.95;;
77038;SDS011;65970;50.476;4.840;2023-02-28T06:43:40;4.40;;;3.00;;
77038;SDS011;65970;50.476;4.840;2023-02-28T06:48:45;5.33;;;2.57;;
77038;SDS011;65970;50.476;4.840;2023-02-28T06:53:46;5.10;;;2.83;;
77038;SDS011;65970;50.476;4.840;2023-02-28T06:58:47;3.80;;;3.13;;
77038;SDS011;65970;50.476;4.840;2023-02-28T07:03:49;4.00;;;2.30;;
77038;SDS011;65970;50.476;4.840;2023-02-28T07:08:51;5.82;;;3.58;;
77038;SDS011;65970;50.476;4.840;2023-02-28T07:13:54;4.88;;;3.15;;
77038;SDS011;65970;50.476;4.840;2023-02-28T07:18:55;4.60;;;3.35;;
77038;SDS011;65970;50.476;4.840;2023-02-28T07:23:56;6.75;;;4.53;;
77038;SDS011;65970;50.476;4.840;2023-02-28T07:28:56;8.85;;;5.00;;
77038;SDS011;65970;50.476;4.840;2023-02-28T07:33:57;6.25;;;4.68;;
77038;SDS011;65970;50.476;4.840;2023-02-28T07:38:58;6.63;;;4.32;;
77038;SDS011;65970;50.476;4.840;2023-02-28T07:43:59;4.68;;;3.63;;
77038;SDS011;65970;50.476;4.840;2023-02-28T07:49:00;3.75;;;3.25;;
77038;SDS011;65970;50.476;4.840;2023-02-28T07:54:01;3.47;;;3.00;;
77038;SDS011;65970;50.476;4.840;2023-02-28T07:59:01;3.70;;;3.25;;
77038;SDS011;65970;50.476;4.840;2023-02-28T08:04:02;7.20;;;3.55;;
77038;SDS011;65970;50.476;4.840;2023-02-28T08:09:08;4.03;;;3.55;;
77038;SDS011;65970;50.476;4.840;2023-02-28T08:14:09;4.93;;;3.67;;
77038;SDS011;65970;50.476;4.840;2023-02-28T08:19:09;7.93;;;4.00;;
77038;SDS011;65970;50.476;4.840;2023-02-28T08:24:10;4.80;;;3.30;;
77038;SDS011;65970;50.476;4.840;2023-02-28T08:29:10;5.70;;;3.33;;
77038;SDS011;65970;50.476;4.840;2023-02-28T08:34:12;6.45;;;3.72;;
77038;SDS011;65970;50.476;4.840;2023-02-28T08:39:13;5.03;;;3.75;;
77038;SDS011;65970;50.476;4.840;2023-02-28T08:44:14;6.95;;;3.95;;
77038;SDS011;65970;50.476;4.840;2023-02-28T08:49:15;4.97;;;3.53;;
77038;SDS011;65970;50.476;4.840;2023-02-28T08:54:15;7.32;;;3.70;;
77038;SDS011;65970;50.476;4.840;2023-02-28T08:59:16;4.80;;;3.42;;
77038;SDS011;65970;50.476;4.840;2023-02-28T09:04:16;4.43;;;3.30;;
77038;SDS011;65970;50.476;4.840;2023-02-28T09:09:17;9.45;;;5.82;;
77038;SDS011;65970;50.476;4.840;2023-02-28T09:14:18;4.30;;;3.42;;
77038;SDS011;65970;50.476;4.840;2023-02-28T09:19:19;2.72;;;2.40;;
77038;SDS011;65970;50.476;4.840;2023-02-28T09:24:20;4.53;;;2.80;;
77038;SDS011;65970;50.476;4.840;2023-02-28T09:29:21;3.45;;;2.83;;
77038;SDS011;65970;50.476;4.840;2023-02-28T09:34:21;7.80;;;2.95;;
77038;SDS011;65970;50.476;4.840;2023-02-28T09:39:22;3.53;;;2.58;;
77038;SDS011;65970;50.476;4.840;2023-02-28T09:44:27;2.17;;;1.98;;
77038;SDS011;65970;50.476;4.840;2023-02-28T09:49:34;1.98;;;1.77;;
77038;SDS011;65970;50.476;4.840;2023-02-28T09:54:40;3.55;;;2.65;;
77038;SDS011;65970;50.476;4.840;2023-02-28T09:59:59;4.30;;;2.00;;
77038;SDS011;65970;50.476;4.840;2023-02-28T10:05:24;3.15;;;2.25;;
77038;SDS011;65970;50.476;4.840;2023-02-28T10:15:29;4.30;;;2.10;;
77038;SDS011;65970;50.476;4.840;2023-02-28T10:20:33;3.13;;;2.38;;
77038;SDS011;65970;50.476;4.840;2023-02-28T10:25:38;3.10;;;2.05;;
77038;SDS011;65970;50.476;4.840;2023-02-28T10:30:40;2.75;;;2.10;;
77038;SDS011;65970;50.476;4.840;2023-02-28T10:35:44;4.53;;;2.13;;
77038;SDS011;65970;50.476;4.840;2023-02-28T10:40:44;3.42;;;2.25;;
77038;SDS011;65970;50.476;4.840;2023-02-28T10:51:01;3.42;;;2.60;;
77038;SDS011;65970;50.476;4.840;2023-02-28T11:01:17;9.60;;;5.60;;
77038;SDS011;65970;50.476;4.840;2023-02-28T11:06:25;5.03;;;3.05;;
77038;SDS011;65970;50.476;4.840;2023-02-28T11:11:41;2.20;;;1.73;;
77038;SDS011;65970;50.476;4.840;2023-02-28T11:16:45;2.87;;;2.30;;
77038;SDS011;65970;50.476;4.840;2023-02-28T11:21:52;1.67;;;1.58;;
77038;SDS011;65970;50.476;4.840;2023-02-28T11:26:56;2.08;;;1.52;;
77038;SDS011;65970;50.476;4.840;2023-02-28T11:37:09;2.03;;;1.58;;
77038;SDS011;65970;50.476;4.840;2023-02-28T12:20:17;23.30;;;9.13;;
77038;SDS011;65970;50.476;4.840;2023-02-28T12:31:12;3.92;;;3.35;;
77038;SDS011;65970;50.476;4.840;2023-02-28T12:36:20;3.38;;;2.05;;
77038;SDS011;65970;50.476;4.840;2023-02-28T12:46:47;3.03;;;1.90;;
77038;SDS011;65970;50.476;4.840;2023-02-28T12:51:50;2.28;;;1.52;;
77038;SDS011;65970;50.476;4.840;2023-02-28T13:12:26;1.45;;;1.30;;
77038;SDS011;65970;50.476;4.840;2023-02-28T13:17:27;1.70;;;1.30;;
77038;SDS011;65970;50.476;4.840;2023-02-28T13:27:39;1.85;;;1.45;;
77038;SDS011;65970;50.476;4.840;2023-02-28T13:32:41;1.73;;;1.27;;
77038;SDS011;65970;50.476;4.840;2023-02-28T13:37:43;1.63;;;1.25;;
77038;SDS011;65970;50.476;4.840;2023-02-28T13:42:47;4.90;;;1.38;;
77038;SDS011;65970;50.476;4.840;2023-02-28T13:47:56;7.80;;;3.92;;
77038;SDS011;65970;50.476;4.840;2023-02-28T14:03:37;3.95;;;2.60;;
77038;SDS011;65970;50.476;4.840;2023-02-28T14:09:02;5.65;;;3.83;;
77038;SDS011;65970;50.476;4.840;2023-02-28T14:14:03;4.60;;;2.38;;
77038;SDS011;65970;50.476;4.840;2023-02-28T14:30:15;1.73;;;1.60;;
77038;SDS011;65970;50.476;4.840;2023-02-28T14:40:45;2.70;;;1.58;;
77038;SDS011;65970;50.476;4.840;2023-02-28T14:45:50;2.55;;;1.63;;
77038;SDS011;65970;50.476;4.840;2023-02-28T14:55:57;1.85;;;1.40;;
77038;SDS011;65970;50.476;4.840;2023-02-28T15:00:59;1.77;;;1.63;;
77038;SDS011;65970;50.476;4.840;2023-02-28T15:11:16;4.28;;;1.75;;
77038;SDS011;65970;50.476;4.840;2023-02-28T15:16:34;4.07;;;1.45;;
77038;SDS011;65970;50.476;4.840;2023-02-28T15:21:42;2.27;;;1.60;;
77038;SDS011;65970;50.476;4.840;2023-02-28T15:26:46;4.53;;;2.15;;
77038;SDS011;65970;50.476;4.840;2023-02-28T15:31:53;3.00;;;1.90;;
77038;SDS011;65970;50.476;4.840;2023-02-28T15:36:57;2.33;;;1.65;;
77038;SDS011;65970;50.476;4.840;2023-02-28T15:42:11;2.17;;;1.55;;
77038;SDS011;65970;50.476;4.840;2023-02-28T15:47:22;1.77;;;1.60;;
77038;SDS011;65970;50.476;4.840;2023-02-28T15:57:42;1.95;;;1.55;;
77038;SDS011;65970;50.476;4.840;2023-02-28T16:02:42;1.83;;;1.63;;
77038;SDS011;65970;50.476;4.840;2023-02-28T16:07:43;2.60;;;1.45;;
77038;SDS011;65970;50.476;4.840;2023-02-28T16:12:44;2.55;;;1.50;;
77038;SDS011;65970;50.476;4.840;2023-02-28T16:17:46;1.45;;;1.35;;
77038;SDS011;65970;50.476;4.840;2023-02-28T16:22:49;3.97;;;1.95;;
77038;SDS011;65970;50.476;4.840;2023-02-28T16:27:50;3.17;;;1.70;;
77038;SDS011;65970;50.476;4.840;2023-02-28T16:32:53;2.03;;;1.83;;
77038;SDS011;65970;50.476;4.840;2023-02-28T16:37:55;2.30;;;1.80;;
77038;SDS011;65970;50.476;4.840;2023-02-28T16:42:57;2.65;;;1.80;;
77038;SDS011;65970;50.476;4.840;2023-02-28T16:48:04;1.40;;;1.30;;
77038;SDS011;65970;50.476;4.840;2023-02-28T16:53:05;2.05;;;1.63;;
77038;SDS011;65970;50.476;4.840;2023-02-28T16:58:05;4.70;;;2.03;;
77038;SDS011;65970;50.476;4.840;2023-02-28T17:03:09;2.63;;;2.00;;
77038;SDS011;65970;50.476;4.840;2023-02-28T17:08:20;3.35;;;2.00;;
77038;SDS011;65970;50.476;4.840;2023-02-28T17:13:21;3.13;;;2.10;;
77038;SDS011;65970;50.476;4.840;2023-02-28T17:18:21;2.38;;;2.03;;
77038;SDS011;65970;50.476;4.840;2023-02-28T17:23:22;3.42;;;2.33;;
77038;SDS011;65970;50.476;4.840;2023-02-28T17:28:24;4.75;;;2.17;;
77038;SDS011;65970;50.476;4.840;2023-02-28T17:33:24;2.95;;;2.22;;
77038;SDS011;65970;50.476;4.840;2023-02-28T17:38:25;3.67;;;2.05;;
77038;SDS011;65970;50.476;4.840;2023-02-28T17:43:26;3.55;;;1.85;;
77038;SDS011;65970;50.476;4.840;2023-02-28T17:48:27;2.72;;;2.15;;
77038;SDS011;65970;50.476;4.840;2023-02-28T17:53:27;2.15;;;1.80;;
77038;SDS011;65970;50.476;4.840;2023-02-28T17:58:28;3.58;;;2.70;;
77038;SDS011;65970;50.476;4.840;2023-02-28T18:03:28;4.05;;;2.80;;
77038;SDS011;65970;50.476;4.840;2023-02-28T18:08:29;4.35;;;2.80;;
77038;SDS011;65970;50.476;4.840;2023-02-28T18:13:31;3.97;;;2.72;;
77038;SDS011;65970;50.476;4.840;2023-02-28T18:18:31;3.10;;;2.13;;
77038;SDS011;65970;50.476;4.840;2023-02-28T18:23:32;2.85;;;2.17;;
77038;SDS011;65970;50.476;4.840;2023-02-28T18:28:33;4.35;;;2.50;;
77038;SDS011;65970;50.476;4.840;2023-02-28T18:33:34;3.88;;;3.38;;
77038;SDS011;65970;50.476;4.840;2023-02-28T18:38:34;3.40;;;2.45;;
77038;SDS011;65970;50.476;4.840;2023-02-28T18:43:35;2.78;;;2.55;;
77038;SDS011;65970;50.476;4.840;2023-02-28T18:48:36;4.53;;;2.65;;
77038;SDS011;65970;50.476;4.840;2023-02-28T18:53:38;5.55;;;2.63;;
77038;SDS011;65970;50.476;4.840;2023-02-28T18:58:40;4.22;;;2.70;;
77038;SDS011;65970;50.476;4.840;2023-02-28T19:03:41;3.30;;;2.58;;
77038;SDS011;65970;50.476;4.840;2023-02-28T19:08:41;2.53;;;2.25;;
77038;SDS011;65970;50.476;4.840;2023-02-28T19:13:43;2.95;;;2.28;;
77038;SDS011;65970;50.476;4.840;2023-02-28T19:18:44;2.58;;;2.10;;
77038;SDS011;65970;50.476;4.840;2023-02-28T19:23:45;2.65;;;2.25;;
77038;SDS011;65970;50.476;4.840;2023-02-28T19:28:45;1.83;;;1.73;;
77038;SDS011;65970;50.476;4.840;2023-02-28T19:33:47;2.75;;;2.25;;
77038;SDS011;65970;50.476;4.840;2023-02-28T19:38:47;3.90;;;2.30;;
77038;SDS011;65970;50.476;4.840;2023-02-28T19:43:48;3.40;;;2.25;;
77038;SDS011;65970;50.476;4.840;2023-02-28T19:48:52;6.07;;;2.63;;
77038;SDS011;65970;50.476;4.840;2023-02-28T19:53:53;4.32;;;2.35;;
77038;SDS011;65970;50.476;4.840;2023-02-28T19:58:56;4.15;;;2.95;;
77038;SDS011;65970;50.476;4.840;2023-02-28T20:03:57;5.53;;;3.03;;
77038;SDS011;65970;50.476;4.840;2023-02-28T20:08:57;4.47;;;3.00;;
77038;SDS011;65970;50.476;4.840;2023-02-28T20:13:58;3.20;;;2.33;;
77038;SDS011;65970;50.476;4.840;2023-02-28T20:18:58;4.45;;;3.38;;
77038;SDS011;65970;50.476;4.840;2023-02-28T20:23:59;3.55;;;2.63;;
77038;SDS011;65970;50.476;4.840;2023-02-28T20:28:59;3.70;;;3.22;;
77038;SDS011;65970;50.476;4.840;2023-02-28T20:34:00;4.32;;;2.83;;
77038;SDS011;65970;50.476;4.840;2023-02-28T20:39:01;4.63;;;2.45;;
77038;SDS011;65970;50.476;4.840;2023-02-28T20:44:02;4.88;;;3.45;;
77038;SDS011;65970;50.476;4.840;2023-02-28T20:49:02;4.25;;;3.42;;
77038;SDS011;65970;50.476;4.840;2023-02-28T20:54:03;8.57;;;4.82;;
77038;SDS011;65970;50.476;4.840;2023-02-28T20:59:05;4.13;;;3.17;;
77038;SDS011;65970;50.476;4.840;2023-02-28T21:04:06;5.75;;;3.63;;
77038;SDS011;65970;50.476;4.840;2023-02-28T21:09:07;3.50;;;2.85;;
77038;SDS011;65970;50.476;4.840;2023-02-28T21:14:12;5.35;;;3.22;;
77038;SDS011;65970;50.476;4.840;2023-02-28T21:19:14;3.80;;;2.90;;
77038;SDS011;65970;50.476;4.840;2023-02-28T21:24:16;5.43;;;3.42;;
77038;SDS011;65970;50.476;4.840;2023-02-28T21:29:18;4.97;;;2.53;;
77038;SDS011;65970;50.476;4.840;2023-02-28T21:34:18;4.95;;;3.45;;
77038;SDS011;65970;50.476;4.840;2023-02-28T21:39:20;6.40;;;3.20;;
77038;SDS011;65970;50.476;4.840;2023-02-28T21:44:23;4.50;;;3.42;;
77038;SDS011;65970;50.476;4.840;2023-02-28T21:49:23;7.28;;;3.92;;
77038;SDS011;65970;50.476;4.840;2023-02-28T21:54:24;4.47;;;3.38;;
77038;SDS011;65970;50.476;4.840;2023-02-28T21:59:25;4.65;;;3.30;;
77038;SDS011;65970;50.476;4.840;2023-02-28T22:04:25;5.07;;;3.67;;
77038;SDS011;65970;50.476;4.840;2023-02-28T22:09:26;11.13;;;3.60;;
77038;SDS011;65970;50.476;4.840;2023-02-28T22:14:27;3.53;;;3.13;;
77038;SDS011;65970;50.476;4.840;2023-02-28T22:19:27;5.03;;;3.55;;
77038;SDS011;65970;50.476;4.840;2023-02-28T22:24:28;4.93;;;3.35;;
77038;SDS011;65970;50.476;4.840;2023-02-28T22:29:28;6.55;;;3.45;;
77038;SDS011;65970;50.476;4.840;2023-02-28T22:34:29;6.20;;;4.00;;
77038;SDS011;65970;50.476;4.840;2023-02-28T22:39:29;8.35;;;5.60;;
77038;SDS011;65970;50.476;4.840;2023-02-28T22:44:30;11.48;;;6.13;;
77038;SDS011;65970;50.476;4.840;2023-02-28T22:49:30;8.13;;;5.15;;
77038;SDS011;65970;50.476;4.840;2023-02-28T22:54:31;7.07;;;4.43;;
77038;SDS011;65970;50.476;4.840;2023-02-28T22:59:31;6.90;;;5.35;;
77038;SDS011;65970;50.476;4.840;2023-02-28T23:04:32;7.72;;;5.18;;
77038;SDS011;65970;50.476;4.840;2023-02-28T23:09:32;5.30;;;4.10;;
77038;SDS011;65970;50.476;4.840;2023-02-28T23:14:33;6.07;;;4.45;;
77038;SDS011;65970;50.476;4.840;2023-02-28T23:19:34;5.57;;;3.83;;
77038;SDS011;65970;50.476;4.840;2023-02-28T23:24:35;5.00;;;3.65;;
77038;SDS011;65970;50.476;4.840;2023-02-28T23:29:36;5.53;;;3.53;;
77038;SDS011;65970;50.476;4.840;2023-02-28T23:34:36;7.65;;;4.45;;
77038;SDS011;65970;50.476;4.840;2023-02-28T23:39:37;5.20;;;3.95;;
77038;SDS011;65970;50.476;4.840;2023-02-28T23:44:37;4.32;;;3.90;;
77038;SDS011;65970;50.476;4.840;2023-02-28T23:49:38;4.70;;;4.00;;
77038;SDS011;65970;50.476;4.840;2023-02-28T23:54:40;4.40;;;3.78;;
77038;SDS011;65970;50.476;4.840;2023-02-28T23:59:40;9.00;;;4.13;;
